Time;durP1;ratioP1;P1;durP2;ratioP2;P2;SDS_P1;SDS_P2;PMS_P1;PMS_P2;Temp;Humidity;BMP_temperature;BMP_pressure;BME280_temperature;BME280_humidity;BME280_pressure;Samples;Min_cycle;Max_cycle;Signal;HPM_P1;HPM_P2
2022/03/31 00:00:38;;;;;;;3.25;1.23;;;5.70;99.90;;;;;;5011991;28;20060;-85
2022/03/31 00:03:15;;;;;;;5.20;1.40;;;5.40;99.90;;;;;;5028483;28;20037;-85
2022/03/31 00:05:41;;;;;;;8.07;1.45;;;4.20;99.90;;;;;;5014305;28;20414;-86
2022/03/31 00:08:09;;;;;;;4.50;1.30;;;4.60;99.90;;;;;;5000365;28;20053;-85
2022/03/31 00:10:37;;;;;;;5.13;1.50;;;4.10;99.90;;;;;;5000909;28;20693;-86
2022/03/31 00:13:06;;;;;;;5.88;1.40;;;5.00;99.90;;;;;;5017629;28;20045;-85
2022/03/31 00:15:32;;;;;;;5.82;1.60;;;4.30;99.90;;;;;;5016282;28;20037;-86
2022/03/31 00:18:00;;;;;;;4.60;1.45;;;4.10;99.90;;;;;;4997268;28;20040;-85
2022/03/31 00:20:26;;;;;;;5.82;1.42;;;4.40;99.90;;;;;;5015301;28;20045;-85
2022/03/31 00:22:52;;;;;;;5.82;1.50;;;4.10;99.90;;;;;;5014667;28;20087;-84
2022/03/31 00:25:18;;;;;;;5.53;1.77;;;4.10;99.90;;;;;;4995610;28;20064;-85
2022/03/31 00:27:44;;;;;;;3.33;1.25;;;4.10;99.90;;;;;;4998442;28;20127;-84
2022/03/31 00:30:12;;;;;;;8.73;1.60;;;4.00;99.90;;;;;;5022116;28;20152;-84
2022/03/31 00:32:39;;;;;;;4.10;1.40;;;5.20;99.90;;;;;;5040843;28;20053;-84
2022/03/31 00:35:06;;;;;;;5.30;1.58;;;5.10;99.90;;;;;;5020149;28;20426;-85
2022/03/31 00:37:32;;;;;;;5.15;1.35;;;4.00;99.90;;;;;;5007030;28;20029;-85
2022/03/31 00:39:58;;;;;;;3.72;1.55;;;4.60;99.90;;;;;;5014605;28;20501;-86
2022/03/31 00:42:24;;;;;;;6.78;1.88;;;4.00;99.90;;;;;;5013333;28;20558;-85
2022/03/31 00:44:50;;;;;;;7.03;1.67;;;4.50;99.90;;;;;;4999637;28;20120;-86
2022/03/31 00:47:17;;;;;;;6.72;1.60;;;4.00;99.90;;;;;;4997691;28;20049;-85
2022/03/31 00:49:43;;;;;;;5.38;1.70;;;5.30;99.90;;;;;;5016549;28;20041;-84
2022/03/31 00:52:09;;;;;;;5.30;1.60;;;4.90;99.90;;;;;;5011029;28;20465;-84
2022/03/31 00:54:36;;;;;;;7.95;1.80;;;4.00;99.90;;;;;;5012775;28;20033;-85
2022/03/31 00:57:04;;;;;;;7.82;1.80;;;3.90;99.90;;;;;;5015644;28;20033;-85
2022/03/31 00:59:30;;;;;;;5.75;1.80;;;3.90;99.90;;;;;;5015815;28;20037;-85
2022/03/31 01:01:57;;;;;;;6.22;1.80;;;4.50;99.90;;;;;;5015798;28;20458;-85
2022/03/31 01:04:23;;;;;;;8.02;2.03;;;3.90;99.90;;;;;;5029297;28;20071;-85
2022/03/31 01:06:49;;;;;;;7.50;2.17;;;5.60;99.90;;;;;;5026384;28;20084;-85
2022/03/31 01:09:15;;;;;;;8.45;2.53;;;5.00;99.90;;;;;;5015641;28;20128;-86
2022/03/31 01:11:41;;;;;;;8.07;2.60;;;3.80;99.90;;;;;;5014659;28;20216;-85
2022/03/31 01:14:08;;;;;;;7.82;2.40;;;4.80;99.90;;;;;;5032684;28;20390;-85
2022/03/31 01:16:35;;;;;;;9.27;2.60;;;4.90;99.90;;;;;;5015290;28;20053;-85
2022/03/31 01:19:05;;;;;;;8.75;2.78;;;4.80;99.90;;;;;;5016579;28;20095;-85
2022/03/31 01:21:39;;;;;;;7.40;2.80;;;4.90;99.90;;;;;;5015708;28;20080;-85
2022/03/31 01:24:10;;;;;;;7.25;2.92;;;3.80;99.90;;;;;;5013027;28;20498;-85
2022/03/31 01:26:40;;;;;;;9.07;3.03;;;5.30;99.90;;;;;;5015841;28;20032;-85
2022/03/31 01:29:08;;;;;;;9.30;3.03;;;3.70;99.90;;;;;;5012932;28;20103;-85
2022/03/31 01:31:35;;;;;;;8.80;3.03;;;5.20;99.90;;;;;;5013303;28;20040;-85
2022/03/31 01:34:01;;;;;;;8.07;3.00;;;3.70;99.90;;;;;;5011135;28;20068;-85
2022/03/31 01:36:27;;;;;;;8.50;3.30;;;3.70;99.90;;;;;;5011719;28;20092;-86
2022/03/31 01:38:55;;;;;;;10.90;3.42;;;3.70;99.90;;;;;;4996696;28;20041;-86
2022/03/31 01:41:22;;;;;;;8.18;3.30;;;5.10;99.90;;;;;;5013289;28;20120;-85
2022/03/31 01:43:48;;;;;;;8.68;3.50;;;3.70;99.90;;;;;;5031948;28;20036;-86
2022/03/31 01:46:14;;;;;;;9.15;3.60;;;3.60;99.90;;;;;;4980656;28;20041;-85
2022/03/31 01:48:40;;;;;;;9.32;3.67;;;3.60;99.90;;;;;;5014015;28;20044;-85
2022/03/31 01:51:06;;;;;;;9.57;3.47;;;3.60;99.90;;;;;;4996887;28;20045;-85
2022/03/31 01:53:32;;;;;;;9.13;3.42;;;3.60;99.90;;;;;;5010626;28;20116;-85
2022/03/31 01:55:58;;;;;;;9.23;3.92;;;5.10;99.90;;;;;;4997708;28;20414;-85
2022/03/31 01:58:24;;;;;;;9.52;3.97;;;5.00;99.90;;;;;;4998456;28;20029;-85
2022/03/31 02:00:50;;;;;;;8.25;3.67;;;5.10;99.90;;;;;;5011448;28;20133;-86
2022/03/31 02:03:16;;;;;;;10.18;4.57;;;3.60;99.90;;;;;;5013436;28;20036;-86
2022/03/31 02:05:42;;;;;;;9.85;4.45;;;4.30;99.90;;;;;;4997009;28;20403;-85
2022/03/31 02:08:08;;;;;;;9.00;3.97;;;3.60;99.90;;;;;;5030028;28;20498;-86
2022/03/31 02:10:35;;;;;;;11.93;4.68;;;3.60;99.90;;;;;;4982147;28;20041;-86
2022/03/31 02:13:01;;;;;;;12.00;4.88;;;4.10;99.90;;;;;;5010287;28;20040;-86
2022/03/31 02:15:29;;;;;;;9.70;4.70;;;3.60;99.90;;;;;;5012077;28;20084;-85
2022/03/31 02:17:56;;;;;;;9.25;4.53;;;4.70;99.90;;;;;;4992283;28;20033;-86
2022/03/31 02:20:27;;;;;;;9.15;4.30;;;5.00;99.90;;;;;;5009924;28;20102;-85
2022/03/31 02:22:52;;;;;;;9.68;4.15;;;3.60;99.90;;;;;;5029823;28;20032;-86
2022/03/31 02:25:18;;;;;;;9.65;4.38;;;4.00;99.90;;;;;;5027010;28;20683;-85
2022/03/31 02:27:44;;;;;;;9.80;4.30;;;3.60;99.90;;;;;;5015329;28;20063;-85
2022/03/31 02:30:10;;;;;;;10.18;4.55;;;3.50;99.90;;;;;;4998280;28;20409;-86
2022/03/31 02:32:37;;;;;;;9.63;4.55;;;3.60;99.90;;;;;;5009646;28;20052;-85
2022/03/31 02:35:05;;;;;;;8.80;4.32;;;3.60;99.90;;;;;;4995670;28;20068;-86
2022/03/31 02:37:31;;;;;;;8.30;4.20;;;3.60;99.90;;;;;;5026112;28;20042;-86
2022/03/31 02:39:57;;;;;;;10.68;4.15;;;4.90;99.90;;;;;;5012875;28;20106;-85
2022/03/31 02:42:23;;;;;;;8.60;4.22;;;3.50;99.90;;;;;;4993420;28;20037;-85
2022/03/31 02:44:49;;;;;;;8.98;4.03;;;3.50;99.90;;;;;;4997298;28;20601;-85
2022/03/31 02:47:15;;;;;;;9.90;4.65;;;3.70;99.90;;;;;;5011743;28;20534;-85
2022/03/31 02:49:41;;;;;;;9.68;4.22;;;4.60;99.90;;;;;;4983292;28;20062;-85
2022/03/31 02:52:07;;;;;;;8.60;4.07;;;4.40;99.90;;;;;;4994283;28;20053;-85
2022/03/31 02:57:18;;;;;;;8.90;3.83;;;4.90;99.90;;;;;;5000230;28;20045;-85
2022/03/31 02:59:44;;;;;;;9.18;3.80;;;4.80;99.90;;;;;;4998724;28;20040;-85
2022/03/31 03:02:10;;;;;;;10.38;3.85;;;3.50;99.90;;;;;;5014112;28;20098;-85
2022/03/31 03:04:36;;;;;;;8.80;3.63;;;4.80;99.90;;;;;;5029409;28;20244;-85
2022/03/31 03:07:02;;;;;;;8.77;3.95;;;3.40;99.90;;;;;;4996620;28;20264;-86
2022/03/31 03:09:28;;;;;;;8.65;3.65;;;3.40;99.90;;;;;;5027594;28;20580;-85
2022/03/31 03:11:53;;;;;;;8.90;3.55;;;3.40;99.90;;;;;;4996737;28;20075;-86
2022/03/31 03:14:19;;;;;;;7.82;3.40;;;4.30;99.90;;;;;;4996930;28;20128;-85
2022/03/31 03:16:45;;;;;;;8.20;3.72;;;3.70;99.90;;;;;;4978696;28;20491;-86
2022/03/31 03:19:11;;;;;;;7.95;3.78;;;3.30;99.90;;;;;;5027742;28;20043;-85
2022/03/31 03:21:36;;;;;;;9.68;4.50;;;4.20;99.90;;;;;;5009844;28;20469;-85
2022/03/31 03:24:03;;;;;;;8.52;4.20;;;3.30;99.90;;;;;;4997010;28;20191;-86
2022/03/31 03:26:30;;;;;;;8.55;4.18;;;3.30;99.90;;;;;;4997223;28;20044;-86
2022/03/31 03:28:56;;;;;;;9.02;4.57;;;4.70;99.90;;;;;;5027611;28;20494;-86
2022/03/31 03:31:22;;;;;;;9.60;4.88;;;3.20;99.90;;;;;;5010366;28;20160;-86
2022/03/31 03:33:47;;;;;;;10.40;5.05;;;3.20;99.90;;;;;;4995443;28;20045;-86
2022/03/31 03:36:16;;;;;;;9.68;5.30;;;3.20;99.90;;;;;;4995979;28;20108;-87
2022/03/31 03:38:43;;;;;;;10.18;5.20;;;4.30;99.90;;;;;;4994770;28;20041;-86
2022/03/31 03:41:13;;;;;;;9.60;5.30;;;3.40;99.90;;;;;;5011187;28;20048;-86
2022/03/31 03:43:43;;;;;;;9.48;5.18;;;3.20;99.90;;;;;;5012381;28;20052;-85
2022/03/31 03:46:09;;;;;;;9.85;5.15;;;3.20;99.90;;;;;;5010052;28;20033;-87
2022/03/31 03:48:35;;;;;;;9.43;5.22;;;4.50;99.90;;;;;;4995465;28;20037;-86
2022/03/31 03:51:01;;;;;;;11.52;6.20;;;3.20;99.90;;;;;;5013081;28;20075;-86
2022/03/31 03:53:27;;;;;;;10.60;6.13;;;3.70;99.90;;;;;;5011529;28;20284;-86
2022/03/31 03:55:53;;;;;;;9.75;5.53;;;3.40;99.90;;;;;;5005438;28;20286;-85
2022/03/31 03:58:19;;;;;;;10.23;5.80;;;3.10;99.90;;;;;;5001408;28;20048;-85
2022/03/31 04:00:45;;;;;;;10.35;5.60;;;4.60;99.90;;;;;;5012504;28;20081;-86
2022/03/31 04:03:11;;;;;;;11.95;6.38;;;3.90;99.90;;;;;;5031610;28;20386;-85
2022/03/31 04:05:38;;;;;;;11.15;5.50;;;3.60;99.90;;;;;;4994859;28;20033;-86
2022/03/31 04:08:04;;;;;;;11.00;5.88;;;3.20;99.90;;;;;;5016981;28;20046;-87
2022/03/31 04:10:32;;;;;;;10.60;6.18;;;3.00;99.90;;;;;;5018300;28;20045;-86
2022/03/31 04:12:58;;;;;;;10.40;5.85;;;3.00;99.90;;;;;;5015982;28;20049;-85
2022/03/31 04:15:24;;;;;;;10.55;5.95;;;4.20;99.90;;;;;;4989942;28;20521;-86
2022/03/31 04:17:50;;;;;;;10.25;5.80;;;3.00;99.90;;;;;;5023486;28;20120;-86
2022/03/31 04:20:16;;;;;;;8.90;4.70;;;3.90;99.90;;;;;;5015159;28;20123;-86
2022/03/31 04:22:42;;;;;;;8.50;4.30;;;2.90;99.90;;;;;;5008930;28;20037;-86
2022/03/31 04:25:10;;;;;;;8.63;4.50;;;3.90;99.90;;;;;;5022980;28;20099;-86
2022/03/31 04:27:38;;;;;;;8.50;4.13;;;3.00;99.90;;;;;;4984490;28;20037;-85
2022/03/31 04:30:06;;;;;;;8.38;4.00;;;4.30;99.90;;;;;;5001926;28;20379;-86
2022/03/31 04:32:31;;;;;;;8.63;4.43;;;2.90;99.90;;;;;;5015382;28;20037;-85
2022/03/31 04:34:57;;;;;;;8.50;4.57;;;3.30;99.90;;;;;;4963086;28;20092;-86
2022/03/31 04:37:23;;;;;;;9.68;4.50;;;3.70;99.90;;;;;;4963959;28;20116;-85
2022/03/31 04:39:48;;;;;;;8.15;3.90;;;3.40;99.90;;;;;;4997326;28;20041;-86
2022/03/31 04:42:14;;;;;;;8.45;3.72;;;2.90;99.90;;;;;;5000788;28;20132;-86
2022/03/31 04:44:40;;;;;;;7.90;3.72;;;2.90;99.90;;;;;;5018530;28;20037;-86
2022/03/31 04:47:06;;;;;;;8.70;4.30;;;2.80;99.90;;;;;;5001370;28;20045;-86
2022/03/31 04:49:33;;;;;;;8.30;4.25;;;2.90;99.90;;;;;;5013483;28;20125;-85
2022/03/31 04:51:59;;;;;;;7.70;3.88;;;2.80;99.90;;;;;;5011909;28;20049;-85
2022/03/31 04:54:25;;;;;;;7.65;3.88;;;2.90;99.90;;;;;;4991126;28;20048;-85
2022/03/31 04:56:51;;;;;;;8.98;4.03;;;3.80;99.90;;;;;;4985720;28;20490;-86
2022/03/31 04:59:16;;;;;;;8.30;4.00;;;3.80;99.90;;;;;;5034319;28;20076;-85
2022/03/31 05:01:42;;;;;;;8.55;4.32;;;2.90;99.90;;;;;;5001842;28;20036;-86
2022/03/31 05:04:09;;;;;;;8.45;4.32;;;2.90;99.90;;;;;;5001581;28;20427;-86
2022/03/31 05:06:35;;;;;;;8.23;4.10;;;4.60;99.90;;;;;;5015845;28;20080;-86
2022/03/31 05:09:02;;;;;;;8.18;4.07;;;2.90;99.90;;;;;;4997631;28;20042;-86
2022/03/31 05:11:28;;;;;;;8.10;3.88;;;2.90;99.90;;;;;;5013637;28;20049;-86
2022/03/31 05:13:53;;;;;;;8.80;4.53;;;2.90;99.90;;;;;;4993701;28;20041;-86
2022/03/31 05:16:19;;;;;;;8.23;4.20;;;2.90;99.90;;;;;;4998334;28;20042;-85
2022/03/31 05:18:46;;;;;;;8.50;4.03;;;3.30;99.90;;;;;;4999957;28;20040;-85
2022/03/31 05:21:12;;;;;;;8.20;4.05;;;2.90;99.90;;;;;;4996123;28;20537;-86
2022/03/31 05:23:38;;;;;;;8.65;4.68;;;4.30;99.90;;;;;;5013499;28;20033;-86
2022/03/31 05:26:03;;;;;;;8.35;4.28;;;4.40;99.90;;;;;;5027417;28;20091;-86
2022/03/31 05:28:30;;;;;;;8.15;4.18;;;4.00;99.90;;;;;;5032859;28;20053;-87
2022/03/31 05:30:56;;;;;;;8.35;3.90;;;3.00;99.90;;;;;;5026165;28;20059;-85
2022/03/31 05:33:21;;;;;;;9.20;4.47;;;3.70;99.90;;;;;;4993839;28;20520;-86
2022/03/31 05:35:48;;;;;;;8.55;4.22;;;3.20;99.90;;;;;;5011549;28;20159;-85
2022/03/31 05:38:14;;;;;;;8.63;4.38;;;2.90;99.90;;;;;;5026913;28;20083;-85
2022/03/31 05:40:39;;;;;;;9.05;4.50;;;2.90;99.90;;;;;;4996460;28;20421;-86
2022/03/31 05:43:05;;;;;;;9.65;5.50;;;2.90;99.90;;;;;;4997862;28;20047;-85
2022/03/31 05:45:31;;;;;;;10.20;5.68;;;5.00;99.90;;;;;;4980151;28;20061;-85
2022/03/31 05:47:57;;;;;;;9.32;5.38;;;2.90;99.90;;;;;;5028596;28;20033;-85
2022/03/31 05:50:23;;;;;;;9.75;5.47;;;2.80;99.90;;;;;;4994138;28;20082;-85
2022/03/31 05:52:49;;;;;;;10.27;6.13;;;2.80;99.90;;;;;;5009628;28;20605;-86
2022/03/31 05:55:17;;;;;;;10.50;6.35;;;4.30;99.90;;;;;;4997172;28;20130;-85
2022/03/31 05:57:43;;;;;;;12.10;7.32;;;4.10;99.90;;;;;;5016043;28;20037;-86
2022/03/31 06:00:12;;;;;;;12.00;6.82;;;4.20;99.90;;;;;;4997940;28;20044;-86
2022/03/31 06:02:39;;;;;;;12.43;7.20;;;2.90;99.90;;;;;;5007730;28;20518;-86
2022/03/31 06:05:05;;;;;;;12.50;7.20;;;4.30;99.90;;;;;;5016461;28;20072;-86
2022/03/31 06:07:31;;;;;;;12.30;7.13;;;3.00;99.90;;;;;;5016645;28;20072;-86
2022/03/31 06:09:57;;;;;;;12.15;7.40;;;4.10;99.90;;;;;;5014549;28;20045;-86
2022/03/31 06:12:22;;;;;;;12.65;7.95;;;2.90;99.90;;;;;;4994458;28;20047;-86
2022/03/31 06:14:48;;;;;;;11.75;7.20;;;3.80;99.90;;;;;;4984546;28;20053;-85
2022/03/31 06:17:14;;;;;;;12.30;8.13;;;3.90;99.90;;;;;;5025586;28;20414;-86
2022/03/31 06:19:39;;;;;;;12.95;7.72;;;3.00;99.90;;;;;;5013642;28;20105;-86
2022/03/31 06:22:06;;;;;;;11.27;7.22;;;3.90;99.90;;;;;;5010754;28;20041;-86
2022/03/31 06:24:31;;;;;;;11.65;7.38;;;3.00;99.90;;;;;;5002982;28;20545;-86
2022/03/31 06:26:58;;;;;;;11.88;7.60;;;3.60;99.90;;;;;;4988582;28;20052;-86
2022/03/31 06:29:27;;;;;;;12.90;8.20;;;3.90;99.90;;;;;;5015458;28;20383;-86
2022/03/31 06:31:54;;;;;;;12.25;7.30;;;4.00;99.90;;;;;;5000605;28;20048;-86
2022/03/31 06:34:23;;;;;;;11.43;7.47;;;3.00;99.90;;;;;;5016351;28;20055;-86
2022/03/31 06:36:50;;;;;;;11.88;7.43;;;3.00;99.90;;;;;;5015576;28;20134;-86
2022/03/31 06:39:16;;;;;;;10.98;6.70;;;3.00;99.90;;;;;;5015173;28;20517;-86
2022/03/31 06:41:45;;;;;;;11.05;6.93;;;3.00;99.90;;;;;;5021577;28;20052;-86
2022/03/31 06:44:13;;;;;;;10.02;6.00;;;3.00;99.90;;;;;;5027288;28;20098;-86
2022/03/31 06:46:40;;;;;;;10.60;6.70;;;3.00;99.90;;;;;;5011403;28;20036;-86
2022/03/31 06:49:06;;;;;;;12.05;7.55;;;3.00;99.90;;;;;;5012082;28;20069;-86
2022/03/31 06:51:31;;;;;;;12.07;7.55;;;3.60;99.90;;;;;;5028092;28;20131;-86
2022/03/31 06:53:57;;;;;;;11.98;7.55;;;4.50;99.90;;;;;;4999550;28;20492;-86
2022/03/31 06:56:27;;;;;;;11.90;7.22;;;3.00;99.90;;;;;;4996652;28;20143;-86
2022/03/31 06:58:53;;;;;;;11.38;7.30;;;4.50;99.90;;;;;;4995732;28;20595;-86
2022/03/31 07:01:19;;;;;;;12.23;7.20;;;3.00;99.90;;;;;;4985541;28;20045;-86
2022/03/31 07:03:45;;;;;;;10.77;6.68;;;4.80;99.90;;;;;;5030914;28;20036;-86
2022/03/31 07:06:11;;;;;;;11.05;7.05;;;3.00;99.90;;;;;;4996880;28;20037;-86
2022/03/31 07:08:36;;;;;;;12.20;6.88;;;3.00;99.90;;;;;;5015503;28;20235;-84
2022/03/31 07:11:03;;;;;;;11.55;7.20;;;3.40;99.90;;;;;;5010727;28;20140;-85
2022/03/31 07:13:29;;;;;;;10.77;6.65;;;3.00;99.90;;;;;;5015710;28;20149;-85
2022/03/31 07:15:56;;;;;;;11.27;6.35;;;4.20;99.90;;;;;;5018247;28;20036;-85
2022/03/31 07:18:21;;;;;;;12.00;6.72;;;3.50;99.90;;;;;;5015029;28;20040;-84
2022/03/31 07:20:47;;;;;;;10.75;6.38;;;3.00;99.90;;;;;;5014789;28;20371;-85
2022/03/31 07:23:13;;;;;;;11.00;6.50;;;3.00;99.90;;;;;;4983708;28;20036;-85
2022/03/31 07:25:39;;;;;;;11.32;6.53;;;3.00;99.90;;;;;;4982955;28;20040;-86
2022/03/31 07:28:05;;;;;;;10.93;6.30;;;3.00;99.90;;;;;;5021432;28;20050;-85
2022/03/31 07:30:30;;;;;;;10.57;6.43;;;5.10;99.90;;;;;;4980263;28;20041;-85
2022/03/31 07:32:59;;;;;;;10.43;6.25;;;5.00;99.90;;;;;;5030197;28;20402;-85
2022/03/31 07:35:27;;;;;;;9.93;5.88;;;3.40;99.90;;;;;;5015394;28;20040;-85
2022/03/31 07:37:54;;;;;;;10.50;6.13;;;3.10;99.90;;;;;;5021721;28;20037;-85
2022/03/31 07:40:23;;;;;;;12.00;6.30;;;3.10;99.90;;;;;;5008782;28;20048;-86
2022/03/31 07:42:50;;;;;;;10.80;5.95;;;3.10;99.90;;;;;;5011176;28;20083;-85
2022/03/31 07:45:16;;;;;;;10.23;5.93;;;3.10;99.90;;;;;;5031170;28;20194;-85
2022/03/31 07:47:42;;;;;;;9.95;5.40;;;3.10;99.90;;;;;;5016016;28;20185;-85
2022/03/31 07:50:10;;;;;;;9.00;4.35;;;3.10;99.90;;;;;;4996673;28;20041;-85
2022/03/31 07:52:37;;;;;;;9.57;5.28;;;3.10;99.90;;;;;;4982084;28;20469;-85
2022/03/31 07:55:04;;;;;;;9.75;5.05;;;3.10;99.90;;;;;;5010552;28;20116;-85
2022/03/31 07:57:30;;;;;;;9.40;4.90;;;3.10;99.90;;;;;;5019792;28;20056;-85
2022/03/31 07:59:56;;;;;;;9.32;4.38;;;3.20;99.90;;;;;;5007785;28;20494;-85
2022/03/31 08:02:25;;;;;;;9.02;4.80;;;3.70;99.90;;;;;;4997607;28;20045;-84
2022/03/31 08:04:51;;;;;;;8.95;4.30;;;3.10;99.90;;;;;;5011655;28;20038;-84
2022/03/31 08:07:17;;;;;;;8.70;4.50;;;3.10;99.90;;;;;;5000192;28;20045;-84
2022/03/31 08:09:43;;;;;;;9.35;5.13;;;3.10;99.90;;;;;;5033364;28;20052;-86
2022/03/31 08:12:10;;;;;;;11.10;6.70;;;3.10;99.90;;;;;;5015303;28;20143;-85
2022/03/31 08:14:36;;;;;;;13.50;8.27;;;3.10;99.90;;;;;;4995246;28;20212;-85
2022/03/31 08:17:03;;;;;;;12.65;8.02;;;4.50;99.90;;;;;;4984343;28;20037;-86
2022/03/31 08:19:32;;;;;;;12.55;7.47;;;3.10;99.90;;;;;;5002248;28;20501;-85
2022/03/31 08:22:01;;;;;;;9.85;5.60;;;4.30;99.90;;;;;;5018191;28;20048;-84
2022/03/31 08:24:27;;;;;;;10.35;5.63;;;3.10;99.90;;;;;;5018912;28;20625;-83
2022/03/31 08:26:53;;;;;;;10.52;5.72;;;3.00;99.90;;;;;;5019148;28;20433;-85
2022/03/31 08:29:19;;;;;;;11.18;6.82;;;3.00;99.90;;;;;;5002820;28;20040;-85
2022/03/31 08:31:45;;;;;;;10.60;6.05;;;3.00;99.90;;;;;;5002547;28;20529;-83
2022/03/31 08:34:11;;;;;;;10.55;5.75;;;4.30;99.90;;;;;;5034435;28;20036;-85
2022/03/31 08:36:37;;;;;;;11.15;5.95;;;2.90;99.90;;;;;;5018924;28;20033;-85
2022/03/31 08:39:04;;;;;;;11.90;6.93;;;4.10;99.90;;;;;;5001819;28;20102;-86
2022/03/31 08:41:30;;;;;;;10.90;6.25;;;2.80;99.90;;;;;;5018033;28;20041;-85
2022/03/31 08:43:57;;;;;;;12.73;7.35;;;2.70;99.90;;;;;;4999990;28;20076;-85
2022/03/31 08:46:23;;;;;;;15.55;9.50;;;3.50;99.90;;;;;;5003007;28;20072;-84
2022/03/31 08:48:49;;;;;;;16.13;10.43;;;3.50;99.90;;;;;;4993310;28;20114;-85
2022/03/31 08:51:16;;;;;;;17.20;10.75;;;2.80;99.90;;;;;;5018099;28;20045;-85
2022/03/31 08:53:42;;;;;;;16.80;10.73;;;2.60;99.90;;;;;;4999147;28;20379;-85
2022/03/31 08:56:10;;;;;;;16.50;10.68;;;3.50;99.90;;;;;;4988583;28;20045;-85
2022/03/31 08:58:36;;;;;;;17.13;10.60;;;2.60;99.90;;;;;;4986128;28;20253;-85
2022/03/31 09:01:02;;;;;;;16.13;10.00;;;2.50;99.90;;;;;;5027021;28;20073;-85
2022/03/31 09:03:36;;;;;;;14.77;9.55;;;2.50;99.90;;;;;;5017900;28;20076;-84
2022/03/31 09:06:04;;;;;;;14.88;8.95;;;2.40;99.90;;;;;;5014084;28;20140;-84
2022/03/31 09:08:30;;;;;;;14.18;9.15;;;2.40;99.90;;;;;;5033626;28;20406;-85
2022/03/31 09:11:00;;;;;;;13.07;8.15;;;2.30;99.90;;;;;;5017904;28;20526;-86
2022/03/31 09:13:26;;;;;;;14.93;9.35;;;3.10;99.90;;;;;;5001799;28;20036;-85
2022/03/31 09:15:56;;;;;;;14.82;8.80;;;2.30;99.90;;;;;;5007317;28;20037;-85
2022/03/31 09:18:23;;;;;;;14.40;9.30;;;2.40;99.90;;;;;;5004762;28;20234;-85
2022/03/31 09:20:52;;;;;;;13.55;7.95;;;2.90;99.90;;;;;;5017122;28;20144;-85
2022/03/31 09:23:23;;;;;;;11.75;7.13;;;2.90;99.90;;;;;;5017845;28;20032;-85
2022/03/31 09:25:51;;;;;;;10.65;5.93;;;2.30;99.90;;;;;;5021144;28;20039;-85
2022/03/31 09:28:24;;;;;;;10.02;5.43;;;2.20;99.90;;;;;;5000070;28;20060;-85
2022/03/31 09:30:53;;;;;;;10.38;5.80;;;2.20;99.90;;;;;;5001419;28;20170;-85
2022/03/31 09:33:26;;;;;;;9.35;5.07;;;2.20;99.90;;;;;;5004715;28;20060;-86
2022/03/31 09:35:57;;;;;;;9.32;5.13;;;2.20;99.90;;;;;;5023135;28;20049;-85
2022/03/31 09:38:23;;;;;;;9.82;5.50;;;2.20;99.90;;;;;;5017842;28;20045;-86
2022/03/31 09:40:48;;;;;;;10.30;6.00;;;3.50;99.90;;;;;;5033505;28;20047;-86
2022/03/31 09:43:14;;;;;;;10.60;6.03;;;3.30;99.90;;;;;;4985317;28;20504;-86
2022/03/31 09:45:41;;;;;;;12.07;6.95;;;2.20;99.90;;;;;;4995937;28;20494;-85
2022/03/31 09:48:19;;;;;;;13.32;7.35;;;2.70;99.90;;;;;;5015743;28;20040;-84
2022/03/31 09:50:45;;;;;;;14.38;8.43;;;2.10;99.90;;;;;;5019848;28;20037;-86
2022/03/31 09:53:12;;;;;;;15.15;8.48;;;3.90;99.90;;;;;;4981619;28;20048;-85
2022/03/31 09:55:38;;;;;;;11.75;6.78;;;0.50;99.90;;;;;;4981321;28;20060;-85
2022/03/31 09:58:06;;;;;;;12.85;6.65;;;2.10;99.90;;;;;;4980002;28;20458;-85
2022/03/31 10:00:31;;;;;;;12.48;6.78;;;2.10;99.90;;;;;;4999275;28;20040;-86
2022/03/31 10:02:59;;;;;;;12.40;6.40;;;2.00;99.90;;;;;;5000798;28;20067;-86
2022/03/31 10:05:27;;;;;;;12.02;6.57;;;2.00;99.90;;;;;;5026465;28;20505;-86
2022/03/31 10:07:56;;;;;;;11.18;6.47;;;1.90;99.90;;;;;;5017382;28;20103;-86
2022/03/31 10:10:22;;;;;;;12.35;7.05;;;1.90;99.90;;;;;;5013141;28;20108;-86
2022/03/31 10:12:55;;;;;;;12.40;6.88;;;1.80;99.90;;;;;;5031575;28;20048;-85
2022/03/31 10:15:34;;;;;;;12.60;7.53;;;2.90;99.90;;;;;;5038245;28;20525;-87
2022/03/31 10:18:00;;;;;;;13.27;7.55;;;1.70;99.90;;;;;;5017050;28;20044;-86
2022/03/31 10:20:26;;;;;;;13.38;7.75;;;1.70;99.90;;;;;;5001813;28;20094;-87
2022/03/31 10:25:46;;;;;;;10.65;6.07;;;1.60;99.90;;;;;;5012795;28;20042;-86
2022/03/31 10:28:17;;;;;;;12.05;6.47;;;2.90;99.90;;;;;;5011711;28;20040;-87
2022/03/31 10:31:01;;;;;;;12.02;6.75;;;3.00;99.90;;;;;;5028688;28;20041;-87
2022/03/31 10:33:42;;;;;;;11.70;6.90;;;1.60;99.90;;;;;;5024843;28;20045;-87
2022/03/31 10:36:13;;;;;;;12.35;6.45;;;1.80;99.90;;;;;;5013460;28;20045;-87
2022/03/31 10:38:58;;;;;;;10.57;5.97;;;1.60;99.90;;;;;;5011427;28;20124;-88
2022/03/31 10:41:32;;;;;;;12.00;7.05;;;1.60;99.90;;;;;;5014902;28;20132;-88
2022/03/31 10:43:58;;;;;;;11.18;6.50;;;1.60;99.90;;;;;;5016407;28;20494;-88
2022/03/31 10:46:25;;;;;;;11.48;6.70;;;1.60;99.90;;;;;;5014825;28;20183;-87
2022/03/31 10:48:53;;;;;;;11.82;6.57;;;2.30;99.90;;;;;;4991035;28;20037;-89
2022/03/31 10:51:32;;;;;;;11.05;6.63;;;1.50;99.90;;;;;;5014884;28;20115;-88
2022/03/31 10:53:58;;;;;;;11.52;6.15;;;1.50;99.90;;;;;;5017502;28;20045;-88
2022/03/31 10:56:29;;;;;;;11.93;6.93;;;1.50;99.90;;;;;;4997184;28;20072;-89
2022/03/31 10:58:58;;;;;;;12.93;7.20;;;1.50;99.90;;;;;;5002809;28;20120;-89
2022/03/31 11:01:34;;;;;;;10.40;5.97;;;1.50;99.90;;;;;;5017539;28;20045;-87
2022/03/31 11:04:11;;;;;;;10.05;5.38;;;1.60;99.90;;;;;;5031741;28;20080;-88
2022/03/31 11:06:46;;;;;;;11.43;6.47;;;1.60;99.90;;;;;;5028600;28;20427;-89
2022/03/31 11:09:32;;;;;;;10.57;5.85;;;1.50;99.90;;;;;;5009682;28;20049;-88
2022/03/31 11:11:59;;;;;;;10.18;5.43;;;1.90;99.90;;;;;;5010589;28;20155;-89
2022/03/31 11:14:27;;;;;;;9.30;4.88;;;1.60;99.90;;;;;;4996901;28;20066;-87
2022/03/31 11:16:53;;;;;;;9.82;5.00;;;1.60;99.90;;;;;;5002743;28;20166;-88
2022/03/31 11:19:20;;;;;;;9.35;4.97;;;1.60;99.90;;;;;;5022822;28;20041;-88
2022/03/31 11:21:46;;;;;;;10.30;5.15;;;1.60;99.90;;;;;;4999497;28;20044;-88
2022/03/31 11:24:12;;;;;;;10.98;5.57;;;1.60;99.90;;;;;;4999887;28;20166;-89
2022/03/31 11:26:40;;;;;;;10.20;4.90;;;1.60;99.90;;;;;;4999733;28;20418;-88
2022/03/31 11:29:11;;;;;;;9.57;4.70;;;2.60;99.90;;;;;;4999978;28;20390;-89
2022/03/31 11:32:02;;;;;;;9.90;5.38;;;2.90;99.90;;;;;;5015874;28;20091;-89
2022/03/31 11:34:28;;;;;;;9.35;5.00;;;1.50;99.90;;;;;;5012338;28;20124;-89
2022/03/31 11:36:55;;;;;;;10.30;5.20;;;2.70;99.90;;;;;;4977372;28;20041;-89
2022/03/31 11:39:28;;;;;;;10.18;5.22;;;1.40;99.90;;;;;;4976829;28;20107;-89
2022/03/31 11:41:54;;;;;;;8.57;4.53;;;1.40;99.90;;;;;;5019259;28;20040;-89
2022/03/31 11:44:21;;;;;;;9.40;5.05;;;1.50;99.90;;;;;;4999921;28;20048;-89
2022/03/31 11:46:49;;;;;;;10.02;5.18;;;1.50;99.90;;;;;;4997254;28;20119;-88
2022/03/31 11:49:15;;;;;;;11.32;5.43;;;1.40;99.90;;;;;;4989667;28;20033;-90
2022/03/31 11:51:48;;;;;;;10.55;5.20;;;1.50;99.90;;;;;;5033757;28;20052;-89
2022/03/31 11:54:14;;;;;;;9.95;5.45;;;;;;;;;;5022652;28;20494;-90
2022/03/31 11:56:40;;;;;;;9.65;5.15;;;1.40;99.90;;;;;;5003549;28;20453;-90
2022/03/31 11:59:05;;;;;;;10.38;5.30;;;2.90;99.90;;;;;;5017309;28;20037;-90
2022/03/31 12:01:48;;;;;;;11.23;5.63;;;1.40;99.90;;;;;;5000947;28;20069;-91
2022/03/31 12:04:29;;;;;;;10.00;5.47;;;1.40;99.90;;;;;;5023363;28;20041;-91
2022/03/31 12:06:56;;;;;;;9.73;5.22;;;1.40;99.90;;;;;;5051377;28;20047;-90
2022/03/31 12:09:26;;;;;;;11.35;6.45;;;2.60;99.90;;;;;;5004449;28;20040;-90
2022/03/31 12:11:53;;;;;;;11.48;6.35;;;1.40;99.90;;;;;;5035001;28;20120;-91
2022/03/31 12:14:19;;;;;;;11.25;6.38;;;1.40;99.90;;;;;;5002285;28;20515;-91
2022/03/31 12:17:03;;;;;;;14.70;7.93;;;1.40;99.90;;;;;;5017358;28;20098;-91
2022/03/31 12:19:40;;;;;;;11.52;7.07;;;1.40;99.90;;;;;;5022168;28;20115;-91
2022/03/31 12:22:06;;;;;;;12.65;7.40;;;1.40;99.90;;;;;;5004208;28;20073;-91
2022/03/31 12:24:32;;;;;;;12.35;7.80;;;2.60;99.90;;;;;;4997244;28;20536;-93
2022/03/31 12:27:06;;;;;;;12.57;7.28;;;1.40;99.90;;;;;;5001469;28;20038;-92
2022/03/31 12:29:33;;;;;;;13.15;7.45;;;1.40;99.90;;;;;;5014507;28;20065;-91
2022/03/31 12:32:08;;;;;;;13.75;8.13;;;3.00;99.90;;;;;;5033923;28;20646;-93
2022/03/31 12:35:11;;;;;;;13.43;7.53;;;1.30;99.90;;;;;;5005466;28;20101;-91
2022/03/31 12:37:38;;;;;;;13.23;8.55;;;1.30;99.90;;;;;;4984582;28;20049;-92
2022/03/31 12:40:09;;;;;;;14.32;8.57;;;1.30;99.90;;;;;;5002970;28;20095;-93
2022/03/31 12:42:36;;;;;;;13.77;8.20;;;1.30;99.90;;;;;;5017345;28;20033;-92
2022/03/31 12:45:15;;;;;;;13.05;8.57;;;1.30;99.90;;;;;;5001634;28;20049;-93
2022/03/31 12:47:43;;;;;;;13.38;8.48;;;1.30;99.90;;;;;;5026112;28;20067;-92
2022/03/31 12:50:20;;;;;;;13.85;8.48;;;1.30;99.90;;;;;;5021491;28;20041;-94
2022/03/31 12:52:53;;;;;;;14.57;9.05;;;1.30;99.90;;;;;;5020196;28;20470;-91
2022/03/31 12:55:27;;;;;;;15.05;9.60;;;1.40;99.90;;;;;;4992238;28;20118;-89
2022/03/31 12:57:59;;;;;;;14.15;9.18;;;1.30;99.90;;;;;;5018231;28;20560;-91
2022/03/31 13:00:25;;;;;;;16.77;10.32;;;2.70;99.90;;;;;;4993840;28;20037;-95